createdAt,value
2019-04-05T00:01:31.330Z,16.07
2019-04-05T00:04:00.428Z,15.90
2019-04-05T00:06:29.499Z,14.80
2019-04-05T00:08:58.576Z,17.10
2019-04-05T00:11:27.684Z,15.57
2019-04-05T00:13:56.783Z,16.12
2019-04-05T00:16:26.007Z,16.97
2019-04-05T00:18:55.092Z,17.30
2019-04-05T00:21:24.210Z,16.65
2019-04-05T00:23:53.303Z,16.50
2019-04-05T00:26:22.419Z,17.50
2019-04-05T00:28:51.889Z,18.27
2019-04-05T00:31:21.187Z,18.57
2019-04-05T00:33:50.267Z,18.90
2019-04-05T00:36:19.341Z,19.60
2019-04-05T00:38:48.507Z,19.93
2019-04-05T00:41:17.615Z,20.07
2019-04-05T00:43:46.713Z,18.87
2019-04-05T00:46:15.812Z,16.67
2019-04-05T00:48:44.935Z,18.17
2019-04-05T00:51:14.144Z,17.47
2019-04-05T00:53:43.372Z,17.23
2019-04-05T00:56:12.527Z,17.30
2019-04-05T00:58:41.592Z,17.63
2019-04-05T01:01:10.789Z,19.43
2019-04-05T01:03:39.879Z,17.87
2019-04-05T01:06:08.983Z,18.70
2019-04-05T01:08:38.076Z,18.07
2019-04-05T01:11:07.263Z,18.23
2019-04-05T01:13:36.843Z,18.67
2019-04-05T01:16:06.051Z,16.30
2019-04-05T01:18:35.112Z,17.87
2019-04-05T01:21:05.687Z,16.77
2019-04-05T01:23:35.880Z,16.00
2019-04-05T01:26:05.272Z,16.23
2019-04-05T01:28:34.697Z,17.80
2019-04-05T01:31:03.776Z,18.13
2019-04-05T01:33:32.863Z,17.63
2019-04-05T01:36:01.941Z,17.27
2019-04-05T01:38:31.045Z,16.87
2019-04-05T01:41:00.611Z,17.37
2019-04-05T01:43:29.691Z,17.73
2019-04-05T01:45:59.903Z,16.77
2019-04-05T01:48:28.995Z,20.07
2019-04-05T01:50:58.076Z,20.63
2019-04-05T01:53:27.269Z,19.77
2019-04-05T01:55:56.359Z,20.67
2019-04-05T01:58:25.426Z,18.27
2019-04-05T02:00:54.577Z,18.53
2019-04-05T02:03:23.673Z,19.37
2019-04-05T02:05:52.754Z,15.90
2019-04-05T02:08:21.845Z,16.67
2019-04-05T02:10:51.009Z,17.17
2019-04-05T02:13:20.110Z,15.37
2019-04-05T02:15:49.205Z,17.67
2019-04-05T02:18:18.420Z,16.53
2019-04-05T02:20:47.515Z,16.83
2019-04-05T02:23:16.595Z,18.80
2019-04-05T02:25:45.676Z,18.93
2019-04-05T02:28:14.879Z,17.83
2019-04-05T02:30:44.093Z,18.93
2019-04-05T02:33:13.157Z,20.37
2019-04-05T02:35:42.252Z,17.87
2019-04-05T02:38:11.322Z,18.27
2019-04-05T02:40:41.610Z,17.03
2019-04-05T02:43:14.078Z,19.57
2019-04-05T02:45:45.173Z,16.70
2019-04-05T02:48:15.355Z,20.43
2019-04-05T02:50:48.720Z,18.40
2019-04-05T02:53:20.032Z,20.20
2019-04-05T02:55:49.847Z,17.10
2019-04-05T02:58:20.620Z,18.17
2019-04-05T03:00:50.350Z,17.57
2019-04-05T03:03:19.466Z,15.30
2019-04-05T03:05:49.072Z,17.53
2019-04-05T03:08:18.847Z,18.87
2019-04-05T03:11:02.793Z,18.00
2019-04-05T03:13:34.066Z,17.10
2019-04-05T03:16:06.292Z,15.93
2019-04-05T03:18:38.989Z,19.00
2019-04-05T03:21:09.855Z,18.97
2019-04-05T03:23:41.670Z,19.37
2019-04-05T03:26:13.764Z,18.83
2019-04-05T03:28:45.951Z,19.37
2019-04-05T03:31:15.021Z,19.83
2019-04-05T03:33:44.537Z,20.33
2019-04-05T03:36:13.714Z,21.27
2019-04-05T03:38:42.780Z,19.43
2019-04-05T03:41:12.329Z,20.60
2019-04-05T03:43:41.643Z,20.87
2019-04-05T03:46:10.846Z,21.10
2019-04-05T03:48:40.003Z,20.70
2019-04-05T03:51:09.421Z,19.57
2019-04-05T03:53:38.702Z,18.80
2019-04-05T03:56:07.887Z,19.40
2019-04-05T03:58:37.071Z,18.83
2019-04-05T04:01:06.462Z,18.30
2019-04-05T04:03:35.593Z,18.23
2019-04-05T04:06:04.778Z,18.43
2019-04-05T04:08:33.976Z,16.57
2019-04-05T04:11:03.867Z,17.57
2019-04-05T04:13:33.222Z,17.23
2019-04-05T04:16:02.603Z,17.97
2019-04-05T04:18:32.682Z,17.83
2019-04-05T04:21:05.872Z,18.60
2019-04-05T04:23:35.467Z,18.53
2019-04-05T04:26:04.885Z,18.93
2019-04-05T04:28:33.970Z,19.73
2019-04-05T04:31:03.682Z,18.07
2019-04-05T04:33:33.597Z,18.13
2019-04-05T04:36:02.871Z,18.27
2019-04-05T04:38:32.464Z,16.87
2019-04-05T04:41:02.064Z,18.17
2019-04-05T04:43:31.202Z,16.07
2019-04-05T04:46:00.289Z,17.67
2019-04-05T04:48:30.251Z,17.33
2019-04-05T04:50:59.778Z,18.07
2019-04-05T04:53:29.370Z,19.23
2019-04-05T04:55:58.563Z,18.93
2019-04-05T04:58:27.648Z,17.93
2019-04-05T05:00:56.925Z,20.32
2019-04-05T05:03:26.202Z,19.53
2019-04-05T05:05:55.346Z,17.43
2019-04-05T05:08:24.624Z,18.67
2019-04-05T05:10:53.810Z,18.90
2019-04-05T05:13:23.006Z,18.63
2019-04-05T05:15:52.686Z,19.03
2019-04-05T05:18:22.480Z,19.13
2019-04-05T05:20:51.647Z,17.60
2019-04-05T05:23:20.954Z,20.10
2019-04-05T05:25:50.596Z,18.90
2019-04-05T05:28:19.790Z,18.40
2019-04-05T05:30:48.972Z,19.90
2019-04-05T05:33:18.406Z,20.10
2019-04-05T05:35:48.066Z,21.23
2019-04-05T05:38:17.178Z,20.87
2019-04-05T05:40:46.350Z,19.93
2019-04-05T05:43:15.438Z,25.27
2019-04-05T05:45:44.530Z,25.17
2019-04-05T05:48:13.839Z,23.33
2019-04-05T05:50:43.847Z,23.13
2019-04-05T05:53:13.240Z,23.90
2019-04-05T05:55:42.360Z,22.60
2019-04-05T05:58:11.482Z,25.57
2019-04-05T06:00:40.663Z,22.77
2019-04-05T06:03:11.228Z,22.63
2019-04-05T06:05:40.691Z,27.20
2019-04-05T06:08:09.778Z,28.50
2019-04-05T06:10:38.965Z,21.97
2019-04-05T06:13:08.037Z,26.03
2019-04-05T06:15:37.593Z,23.57
2019-04-05T06:18:07.004Z,26.67
2019-04-05T06:20:36.092Z,28.33
2019-04-05T06:23:05.355Z,27.27
2019-04-05T06:25:34.700Z,24.17
2019-04-05T06:28:03.805Z,21.07
2019-04-05T06:30:32.917Z,23.33
2019-04-05T06:33:01.997Z,24.63
2019-04-05T06:35:31.101Z,23.60
2019-04-05T06:38:00.217Z,28.43
2019-04-05T06:40:39.994Z,25.87
2019-04-05T06:43:00.333Z,22.67
2019-04-05T06:45:29.573Z,22.17
2019-04-05T06:47:58.653Z,23.17
2019-04-05T06:50:27.759Z,24.30
2019-04-05T06:52:56.864Z,23.67
2019-04-05T06:55:26.032Z,25.63
2019-04-05T06:57:55.162Z,22.77
2019-04-05T07:00:30.164Z,25.20
2019-04-05T07:02:59.759Z,24.60
2019-04-05T07:05:28.877Z,26.23
2019-04-05T07:07:57.998Z,26.83
2019-04-05T07:10:27.143Z,24.50
2019-04-05T07:12:56.386Z,24.80
2019-04-05T07:15:25.617Z,26.50
2019-04-05T07:17:54.805Z,26.50
2019-04-05T07:20:24.014Z,29.10
2019-04-05T07:22:53.129Z,26.83
2019-04-05T07:25:22.216Z,25.53
2019-04-05T07:27:51.345Z,27.20
2019-04-05T07:30:20.551Z,25.60
2019-04-05T07:32:49.718Z,26.33
2019-04-05T07:35:18.845Z,25.93
2019-04-05T07:37:48.028Z,24.03
2019-04-05T07:40:18.032Z,26.23
2019-04-05T07:42:47.138Z,23.60
2019-04-05T07:45:16.272Z,23.40
2019-04-05T07:47:45.365Z,23.13
2019-04-05T07:50:14.741Z,23.13
2019-04-05T07:52:43.862Z,24.10
2019-04-05T07:55:13.468Z,22.47
2019-04-05T07:57:42.649Z,24.80
2019-04-05T08:00:24.647Z,23.43
2019-04-05T08:02:53.855Z,25.03
2019-04-05T08:05:23.030Z,25.10
2019-04-05T08:07:53.225Z,23.97
2019-04-05T08:10:22.533Z,23.60
2019-04-05T08:12:51.809Z,22.70
2019-04-05T08:15:20.914Z,22.47
2019-04-05T08:17:50.003Z,23.20
2019-04-05T08:20:19.073Z,25.60
2019-04-05T08:22:48.157Z,23.83
2019-04-05T08:25:17.281Z,23.87
2019-04-05T08:27:46.398Z,23.93
2019-04-05T08:30:15.603Z,22.83
2019-04-05T08:32:44.715Z,21.07
2019-04-05T08:35:13.871Z,19.70
2019-04-05T08:37:43.008Z,19.70
2019-04-05T08:40:12.236Z,19.33
2019-04-05T08:42:41.355Z,18.00
2019-04-05T08:45:10.822Z,17.60
2019-04-05T08:47:39.979Z,17.30
2019-04-05T08:50:09.599Z,16.43
2019-04-05T08:52:38.683Z,16.37
2019-04-05T08:55:07.839Z,17.23
2019-04-05T08:57:36.959Z,16.90
2019-04-05T09:00:06.695Z,17.37
2019-04-05T09:02:35.863Z,17.33
2019-04-05T09:05:05.334Z,16.37
2019-04-05T09:07:34.426Z,16.37
2019-04-05T09:10:03.897Z,17.43
2019-04-05T09:12:33.005Z,16.10
2019-04-05T09:15:02.122Z,15.73
2019-04-05T09:17:31.219Z,15.17
2019-04-05T09:20:00.397Z,15.10
2019-04-05T09:22:29.463Z,15.90
2019-04-05T09:24:58.585Z,15.27
2019-04-05T09:27:27.706Z,16.50
2019-04-05T09:29:56.867Z,15.70
2019-04-05T09:32:25.979Z,16.20
2019-04-05T09:34:55.157Z,15.67
2019-04-05T09:37:24.315Z,16.37
2019-04-05T09:39:53.463Z,15.23
2019-04-05T09:42:22.618Z,13.93
2019-04-05T09:44:51.720Z,14.63
2019-04-05T09:47:20.824Z,15.13
2019-04-05T09:49:49.921Z,13.77
2019-04-05T09:52:19.035Z,15.10
2019-04-05T09:54:48.118Z,14.20
2019-04-05T09:57:17.217Z,13.77
2019-04-05T09:59:46.331Z,11.47
2019-04-05T10:02:15.431Z,11.17
2019-04-05T10:04:44.536Z,10.27
2019-04-05T10:07:13.641Z,12.60
2019-04-05T10:09:42.798Z,11.57
2019-04-05T10:12:11.894Z,11.90
2019-04-05T10:14:40.998Z,13.27
2019-04-05T10:17:10.120Z,11.63
2019-04-05T10:19:49.249Z,11.27
2019-04-05T10:22:10.111Z,13.57
2019-04-05T10:24:39.219Z,12.47
2019-04-05T10:27:08.309Z,13.27
2019-04-05T10:29:37.444Z,13.83
2019-04-05T10:32:06.546Z,14.30
2019-04-05T10:34:35.643Z,13.30
2019-04-05T10:37:04.760Z,13.67
2019-04-05T10:39:33.852Z,14.37
2019-04-05T10:42:04.033Z,13.10
2019-04-05T10:44:33.348Z,13.53
2019-04-05T10:47:02.472Z,12.47
2019-04-05T10:49:31.652Z,12.17
2019-04-05T10:52:00.780Z,11.60
2019-04-05T10:54:29.888Z,11.67
2019-04-05T10:56:58.995Z,10.33
2019-04-05T10:59:28.138Z,10.70
2019-04-05T11:01:57.254Z,10.30
2019-04-05T11:04:26.428Z,9.20
2019-04-05T11:06:55.591Z,9.17
2019-04-05T11:09:24.716Z,9.83
2019-04-05T11:11:53.922Z,10.13
2019-04-05T11:14:23.138Z,10.00
2019-04-05T11:16:58.291Z,9.80
2019-04-05T11:19:23.084Z,10.73
2019-04-05T11:21:52.501Z,10.80
2019-04-05T11:24:21.676Z,11.17
2019-04-05T11:26:50.846Z,10.97
2019-04-05T11:29:19.954Z,10.93
2019-04-05T11:31:57.107Z,11.00
2019-04-05T11:34:20.188Z,12.07
2019-04-05T11:36:49.728Z,10.63
2019-04-05T11:39:18.944Z,8.77
2019-04-05T11:41:50.361Z,8.53
2019-04-05T11:44:19.640Z,9.07
2019-04-05T11:46:49.440Z,10.33
2019-04-05T11:49:19.225Z,9.37
2019-04-05T11:51:49.040Z,10.37
2019-04-05T11:54:18.531Z,9.77
2019-04-05T11:56:47.791Z,9.33
2019-04-05T11:59:16.898Z,9.03
2019-04-05T12:01:59.332Z,8.90
2019-04-05T12:04:28.383Z,8.90
2019-04-05T12:06:57.619Z,8.40
2019-04-05T12:09:26.752Z,8.17
2019-04-05T12:11:55.851Z,9.27
2019-04-05T12:14:30.530Z,9.40
2019-04-05T12:16:55.850Z,9.37
2019-04-05T12:19:24.993Z,9.53
2019-04-05T12:21:54.100Z,9.60
2019-04-05T12:24:23.287Z,10.03
2019-04-05T12:26:52.437Z,9.87
2019-04-05T12:29:21.630Z,9.57
2019-04-05T12:31:53.333Z,10.00
2019-04-05T12:34:22.362Z,9.40
2019-04-05T12:36:52.697Z,9.50
2019-04-05T12:39:22.427Z,11.03
2019-04-05T12:41:51.538Z,14.13
2019-04-05T12:44:20.738Z,9.37
2019-04-05T12:46:49.834Z,9.27
2019-04-05T12:49:19.020Z,9.63
2019-04-05T12:51:48.140Z,9.37
2019-04-05T12:54:17.362Z,9.67
2019-04-05T12:56:46.585Z,9.43
2019-04-05T12:59:15.670Z,9.57
2019-04-05T13:01:45.635Z,9.40
2019-04-05T13:04:15.710Z,9.80
2019-04-05T13:06:44.813Z,9.67
2019-04-05T13:09:14.036Z,10.40
2019-04-05T13:11:43.218Z,10.57
2019-04-05T13:14:12.352Z,10.23
2019-04-05T13:16:41.476Z,9.60
2019-04-05T13:19:10.578Z,9.30
2019-04-05T13:21:39.784Z,10.70
2019-04-05T13:24:10.085Z,9.70
2019-04-05T13:26:41.636Z,9.47
2019-04-05T13:29:10.112Z,10.70
2019-04-05T13:31:39.293Z,10.30
2019-04-05T13:34:08.380Z,10.43
2019-04-05T13:36:37.498Z,10.47
2019-04-05T13:39:07.611Z,9.93
2019-04-05T13:41:36.745Z,10.43
2019-04-05T13:44:06.091Z,10.47
2019-04-05T13:46:38.230Z,11.03
2019-04-05T13:49:06.048Z,10.87
2019-04-05T13:51:35.172Z,10.87
2019-04-05T13:54:04.386Z,10.40
2019-04-05T13:56:33.520Z,10.57
2019-04-05T13:59:02.635Z,10.40
2019-04-05T14:01:31.720Z,10.23
2019-04-05T14:04:00.850Z,10.40
2019-04-05T14:06:29.944Z,9.97
2019-04-05T14:08:59.028Z,9.23
2019-04-05T14:11:28.155Z,10.07
2019-04-05T14:13:57.214Z,10.33
2019-04-05T14:16:26.395Z,11.43
2019-04-05T14:18:55.492Z,11.17
2019-04-05T14:21:24.603Z,9.53
2019-04-05T14:23:53.957Z,10.67
2019-04-05T14:26:23.291Z,9.80
2019-04-05T14:28:53.059Z,11.97
2019-04-05T14:31:22.375Z,10.50
2019-04-05T14:33:54.074Z,10.67
2019-04-05T14:36:23.039Z,10.73
2019-04-05T14:38:52.629Z,11.23
2019-04-05T14:41:21.742Z,11.10
2019-04-05T14:43:50.834Z,11.37
2019-04-05T14:46:19.939Z,11.10
2019-04-05T14:48:49.074Z,11.07
2019-04-05T14:51:18.302Z,11.57
2019-04-05T14:53:47.406Z,11.53
2019-04-05T14:56:16.560Z,10.60
2019-04-05T14:58:45.679Z,11.13
2019-04-05T15:01:15.525Z,11.40
2019-04-05T15:03:45.709Z,10.97
2019-04-05T15:06:14.807Z,11.33
2019-04-05T15:08:43.957Z,10.63
2019-04-05T15:11:13.169Z,11.00
2019-04-05T15:13:42.327Z,10.70
2019-04-05T15:16:11.627Z,11.43
2019-04-05T15:18:42.236Z,11.90
2019-04-05T15:21:11.333Z,12.37
2019-04-05T15:23:41.335Z,10.73
2019-04-05T15:26:10.771Z,12.30
2019-04-05T15:28:39.903Z,11.00
2019-04-05T15:31:08.995Z,11.30
2019-04-05T15:33:38.295Z,10.97
2019-04-05T15:36:07.436Z,11.03
2019-04-05T15:38:36.650Z,10.67
2019-04-05T15:41:05.751Z,11.47
2019-04-05T15:43:34.855Z,10.80
2019-04-05T15:46:04.089Z,10.63
2019-04-05T15:48:33.175Z,11.00
2019-04-05T15:51:02.293Z,10.00
2019-04-05T15:53:32.105Z,11.73
2019-04-05T15:56:04.230Z,10.90
2019-04-05T15:58:34.059Z,10.93
2019-04-05T16:01:04.979Z,10.50
2019-04-05T16:03:36.830Z,10.77
2019-04-05T16:06:05.236Z,11.83
2019-04-05T16:08:34.332Z,11.20
2019-04-05T16:11:03.656Z,10.83
2019-04-05T16:13:32.859Z,11.20
2019-04-05T16:16:01.973Z,11.20
2019-04-05T16:18:31.088Z,11.23
2019-04-05T16:21:00.330Z,12.00
2019-04-05T16:23:29.481Z,12.03
2019-04-05T16:25:58.584Z,12.40
2019-04-05T16:28:27.684Z,12.70
2019-04-05T16:30:56.783Z,12.57
2019-04-05T16:33:25.954Z,12.97
2019-04-05T16:35:55.032Z,12.63
2019-04-05T16:38:24.174Z,12.23
2019-04-05T16:40:53.341Z,12.50
2019-04-05T16:43:22.455Z,13.93
2019-04-05T16:45:51.645Z,13.73
2019-04-05T16:48:20.745Z,14.67
2019-04-05T16:50:49.875Z,16.13
2019-04-05T16:53:19.058Z,15.33
2019-04-05T16:55:48.154Z,17.10
2019-04-05T16:58:17.293Z,17.63
2019-04-05T17:00:46.461Z,17.37
2019-04-05T17:03:15.575Z,17.93
2019-04-05T17:05:44.789Z,18.03
2019-04-05T17:08:13.895Z,18.10
2019-04-05T17:10:43.244Z,18.33
2019-04-05T17:13:12.357Z,20.07
2019-04-05T17:15:41.485Z,20.20
2019-04-05T17:18:10.612Z,20.77
2019-04-05T17:20:39.715Z,20.27
2019-04-05T17:23:09.024Z,21.47
2019-04-05T17:25:38.266Z,21.10
2019-04-05T17:28:07.369Z,21.30
2019-04-05T17:30:36.517Z,20.43
2019-04-05T17:33:07.426Z,21.77
2019-04-05T17:35:36.657Z,21.33
2019-04-05T17:38:05.779Z,22.43
2019-04-05T17:40:35.003Z,23.10
2019-04-05T17:43:04.106Z,21.40
2019-04-05T17:45:33.227Z,23.47
2019-04-05T17:48:02.323Z,22.13
2019-04-05T17:50:33.515Z,23.23
2019-04-05T17:53:12.336Z,23.20
2019-04-05T17:55:33.635Z,23.33
2019-04-05T17:58:05.626Z,24.13
2019-04-05T18:00:34.794Z,23.93
2019-04-05T18:03:04.361Z,22.97
2019-04-05T18:05:33.452Z,23.60
2019-04-05T18:08:02.594Z,24.77
2019-04-05T18:10:31.838Z,24.43
2019-04-05T18:13:00.944Z,24.30
2019-04-05T18:15:30.555Z,25.30
2019-04-05T18:17:59.668Z,23.43
2019-04-05T18:20:28.862Z,26.03
2019-04-05T18:22:58.150Z,25.83
2019-04-05T18:25:27.300Z,25.27
2019-04-05T18:27:56.474Z,23.63
2019-04-05T18:30:25.610Z,25.43
2019-04-05T18:32:54.807Z,25.73
2019-04-05T18:35:23.906Z,26.30
2019-04-05T18:37:53.119Z,24.67
2019-04-05T18:40:22.324Z,26.67
2019-04-05T18:42:51.432Z,24.83
2019-04-05T18:45:20.806Z,28.13
2019-04-05T18:47:49.915Z,25.47
2019-04-05T18:50:19.014Z,26.27
2019-04-05T18:52:48.216Z,27.90
2019-04-05T18:55:17.438Z,27.87
2019-04-05T18:57:46.540Z,27.97
2019-04-05T19:00:15.688Z,29.83
2019-04-05T19:02:44.845Z,29.60
2019-04-05T19:05:15.092Z,31.10
2019-04-05T19:07:44.204Z,29.17
2019-04-05T19:10:13.541Z,30.53
2019-04-05T19:12:42.765Z,30.27
2019-04-05T19:15:12.066Z,30.53
2019-04-05T19:17:41.197Z,29.97
2019-04-05T19:20:10.455Z,32.97
2019-04-05T19:22:39.592Z,33.53
2019-04-05T19:25:08.710Z,32.43
2019-04-05T19:27:37.828Z,32.90
2019-04-05T19:50:14.814Z,34.87
2019-04-05T19:52:43.990Z,33.33
2019-04-05T19:55:13.084Z,33.93
2019-04-05T19:57:42.196Z,34.53
2019-04-05T20:00:11.618Z,36.97
2019-04-05T20:02:40.726Z,34.80
2019-04-05T20:05:09.831Z,35.83
2019-04-05T20:07:38.927Z,35.03
2019-04-05T20:10:08.080Z,37.23
2019-04-05T20:12:37.159Z,36.33
2019-04-05T20:15:06.791Z,34.67
2019-04-05T20:17:35.919Z,34.90
2019-04-05T20:20:06.449Z,34.17
2019-04-05T20:22:35.578Z,37.30
2019-04-05T20:25:05.206Z,37.07
2019-04-05T20:27:34.322Z,37.23
2019-04-05T20:30:03.826Z,56.10
2019-04-05T20:32:32.976Z,36.37
2019-04-05T20:35:02.079Z,36.07
2019-04-05T20:37:31.173Z,35.70
2019-04-05T20:40:00.285Z,35.83
2019-04-05T20:42:29.399Z,35.00
2019-04-05T20:44:58.503Z,37.57
2019-04-05T20:47:27.598Z,37.07
2019-04-05T20:49:56.724Z,36.33
2019-04-05T20:52:25.809Z,36.70
2019-04-05T20:54:54.942Z,37.83
2019-04-05T20:57:24.051Z,36.60
2019-04-05T20:59:53.148Z,37.30
2019-04-05T21:02:22.312Z,36.37
2019-04-05T21:04:51.439Z,38.70
2019-04-05T21:07:20.624Z,37.87
2019-04-05T21:09:49.815Z,38.43
2019-04-05T21:12:19.057Z,37.57
2019-04-05T21:14:48.161Z,39.10
2019-04-05T21:17:18.175Z,37.07
2019-04-05T21:19:47.248Z,37.93
2019-04-05T21:22:16.387Z,38.50
2019-04-05T21:24:45.483Z,39.10
2019-04-05T21:27:14.601Z,39.33
2019-04-05T21:29:43.678Z,39.17
2019-04-05T21:32:12.770Z,39.87
2019-04-05T21:34:41.874Z,39.20
2019-04-05T21:37:10.964Z,39.40
2019-04-05T21:39:40.099Z,40.17
2019-04-05T21:42:09.273Z,40.27
2019-04-05T21:44:38.533Z,42.00
2019-04-05T21:47:07.755Z,40.03
2019-04-05T21:49:36.905Z,42.47
2019-04-05T21:52:06.067Z,41.43
2019-04-05T21:54:35.239Z,41.53
2019-04-05T21:57:04.427Z,44.33
2019-04-05T21:59:33.537Z,40.73
2019-04-05T22:02:02.920Z,41.27
2019-04-05T22:04:32.107Z,42.17
2019-04-05T22:07:01.213Z,42.90
2019-04-05T22:09:30.319Z,41.50
2019-04-05T22:11:59.598Z,39.87
2019-04-05T22:14:28.717Z,37.20
2019-04-05T22:16:57.815Z,40.63
2019-04-05T22:19:26.923Z,41.33
2019-04-05T22:21:56.128Z,38.40
2019-04-05T22:24:25.529Z,39.50
2019-04-05T22:26:54.635Z,41.77
2019-04-05T22:29:23.723Z,41.00
2019-04-05T22:31:52.807Z,38.77
2019-04-05T22:34:21.965Z,39.53
2019-04-05T22:36:51.090Z,38.43
2019-04-05T22:39:21.522Z,40.77
2019-04-05T22:41:50.850Z,40.97
2019-04-05T22:44:19.962Z,37.90
2019-04-05T22:46:49.058Z,37.90
2019-04-05T22:49:18.191Z,38.87
2019-04-05T22:51:47.287Z,40.33
2019-04-05T22:54:16.383Z,39.40
2019-04-05T22:56:45.501Z,39.07
2019-04-05T22:59:14.581Z,38.77
2019-04-05T23:01:43.679Z,38.30
2019-04-05T23:04:12.777Z,42.10
2019-04-05T23:06:41.897Z,40.73
2019-04-05T23:09:10.984Z,39.17
2019-04-05T23:11:40.079Z,40.73
2019-04-05T23:14:09.182Z,37.83
2019-04-05T23:16:38.347Z,42.27
2019-04-05T23:19:07.477Z,39.23
2019-04-05T23:21:36.570Z,38.13
2019-04-05T23:24:05.667Z,38.87
2019-04-05T23:26:34.756Z,42.53
2019-04-05T23:29:03.863Z,42.37
2019-04-05T23:31:33.052Z,42.27
2019-04-05T23:34:02.179Z,41.40
2019-04-05T23:36:31.257Z,39.73
2019-04-05T23:39:00.369Z,42.03
2019-04-05T23:41:29.449Z,42.10
2019-04-05T23:43:58.630Z,41.13
2019-04-05T23:46:27.821Z,41.13
2019-04-05T23:48:56.926Z,41.97
2019-04-05T23:51:26.046Z,39.93
2019-04-05T23:53:55.152Z,40.17
2019-04-05T23:56:24.218Z,41.00
2019-04-05T23:58:53.324Z,43.87
